Time;durP1;ratioP1;P1;durP2;ratioP2;P2;SDS_P1;SDS_P2;PMS_P1;PMS_P2;Temp;Humidity;BMP_temperature;BMP_pressure;BME280_temperature;BME280_humidity;BME280_pressure;Samples;Min_cycle;Max_cycle;Signal;HPM_P1;HPM_P2
2022/04/11 00:01:29;0.00;0.00;0.62;0.00;0.00;0.62;1.47;0.80;;;23.20;23.40;;;;;;2481866;53;20474;-63
2022/04/11 00:04:13;0.00;0.00;0.62;0.00;0.00;0.62;1.60;0.90;;;23.20;23.50;;;;;;2247651;61;20449;-61
2022/04/11 00:06:58;0.00;0.00;0.62;0.00;0.00;0.62;1.53;0.80;;;23.20;23.40;;;;;;2248269;61;20375;-63
2022/04/11 00:09:44;0.00;0.00;0.62;0.00;0.00;0.62;1.80;1.00;;;23.20;23.40;;;;;;2244951;61;20890;-63
2022/04/11 00:12:34;0.00;0.00;0.62;0.00;0.00;0.62;1.30;0.80;;;23.20;23.30;;;;;;2247802;61;20399;-64
2022/04/11 00:15:19;0.00;0.00;0.62;0.00;0.00;0.62;1.50;0.73;;;23.20;23.30;;;;;;2248002;61;20411;-67
2022/04/11 00:18:04;0.00;0.00;0.62;0.00;0.00;0.62;1.33;0.80;;;23.20;23.30;;;;;;2248343;61;20348;-66
2022/04/11 00:20:49;0.00;0.00;0.62;0.00;0.00;0.62;2.00;1.20;;;23.20;23.30;;;;;;2248592;61;21000;-67
2022/04/11 00:23:33;0.00;0.00;0.62;0.00;0.00;0.62;1.60;1.17;;;23.20;23.80;;;;;;2248101;61;20384;-66
2022/04/11 00:26:19;0.00;0.00;0.62;0.00;0.00;0.62;1.63;1.30;;;23.20;23.20;;;;;;2247745;61;20399;-66
2022/04/11 00:29:04;0.00;0.00;0.62;0.00;0.00;0.62;1.57;1.20;;;23.20;23.10;;;;;;2245171;61;20367;-66
2022/04/11 00:31:49;0.00;0.00;0.62;0.00;0.00;0.62;2.77;1.60;;;23.10;23.00;;;;;;2245209;61;20924;-66
2022/04/11 00:34:34;0.00;0.00;0.62;0.00;0.00;0.62;1.90;1.40;;;23.10;22.90;;;;;;2247997;61;20914;-66
2022/04/11 00:37:19;0.00;0.00;0.62;0.00;0.00;0.62;2.03;1.30;;;23.00;22.90;;;;;;2244577;61;20411;-66
2022/04/11 00:40:05;0.00;0.00;0.62;0.00;0.00;0.62;2.73;1.60;;;23.00;22.90;;;;;;2248043;61;20919;-67
2022/04/11 00:42:50;0.00;0.00;0.62;0.00;0.00;0.62;3.10;1.93;;;22.90;22.80;;;;;;2248624;61;20418;-67
2022/04/11 00:45:36;0.00;0.00;0.62;0.00;0.00;0.62;2.40;1.83;;;22.90;22.70;;;;;;2244469;61;20835;-66
2022/04/11 00:48:20;0.00;0.00;0.62;0.00;0.00;0.62;2.60;1.73;;;22.90;22.70;;;;;;2247487;61;20904;-66
2022/04/11 00:51:09;0.00;0.00;0.62;0.00;0.00;0.62;3.10;2.00;;;22.80;22.60;;;;;;2248471;61;20411;-66
2022/04/11 00:53:58;0.00;0.00;0.62;0.00;0.00;0.62;2.50;1.90;;;22.80;22.60;;;;;;2248765;61;20368;-68
2022/04/11 00:56:44;0.00;0.00;0.62;0.00;0.00;0.62;3.40;2.00;;;22.70;22.60;;;;;;2247917;61;20364;-66
2022/04/11 00:59:30;0.00;0.00;0.62;0.00;0.00;0.62;2.60;1.70;;;22.70;22.60;;;;;;2247490;61;20782;-66
2022/04/11 01:02:15;0.00;0.00;0.62;0.00;0.00;0.62;3.50;1.87;;;22.70;22.60;;;;;;2247900;61;20363;-66
2022/04/11 01:05:00;0.00;0.00;0.62;0.00;0.00;0.62;4.43;1.97;;;22.70;22.60;;;;;;2245407;61;20432;-66
2022/04/11 01:07:45;0.00;0.00;0.62;0.00;0.00;0.62;2.47;1.70;;;22.60;22.50;;;;;;2247660;61;20371;-65
2022/04/11 01:10:29;0.00;0.00;0.62;0.00;0.00;0.62;3.07;2.00;;;22.60;22.50;;;;;;2247688;61;20443;-66
2022/04/11 01:13:14;0.00;0.00;0.62;0.00;0.00;0.62;2.67;1.83;;;22.60;22.50;;;;;;2247952;61;20375;-66
2022/04/11 01:16:04;0.00;0.00;0.62;0.00;0.00;0.62;3.10;2.10;;;22.60;22.60;;;;;;2248057;61;20372;-67
2022/04/11 01:18:49;0.00;0.00;0.62;0.00;0.00;0.62;2.87;2.30;;;22.60;22.60;;;;;;2247022;61;20431;-66
2022/04/11 01:21:35;0.00;0.00;0.62;0.00;0.00;0.62;2.20;1.70;;;22.60;22.50;;;;;;2247294;61;20379;-66
2022/04/11 01:24:21;0.00;0.00;0.62;0.00;0.00;0.62;2.67;2.33;;;22.50;22.50;;;;;;2247902;61;20460;-66
2022/04/11 01:27:06;0.00;0.00;0.62;0.00;0.00;0.62;4.10;2.03;;;22.50;22.50;;;;;;2248127;61;20443;-66
2022/04/11 01:29:51;0.00;0.00;0.62;0.00;0.00;0.62;3.97;2.43;;;22.50;22.50;;;;;;2247401;61;20487;-66
2022/04/11 01:32:37;0.00;0.00;0.62;0.00;0.00;0.62;3.03;1.90;;;22.40;22.40;;;;;;2247533;61;20435;-66
2022/04/11 01:35:25;0.00;0.00;0.62;0.00;0.00;0.62;2.97;1.90;;;22.40;22.30;;;;;;2245082;61;20507;-66
2022/04/11 01:38:13;0.00;0.00;0.62;0.00;0.00;0.62;3.97;1.87;;;22.40;22.30;;;;;;2247527;61;20379;-66
2022/04/11 01:40:58;0.00;0.00;0.62;0.00;0.00;0.62;3.33;2.23;;;22.30;22.10;;;;;;2247549;61;20391;-66
2022/04/11 01:43:45;0.00;0.00;0.62;0.00;0.00;0.62;2.47;2.00;;;22.20;22.10;;;;;;2247503;61;20411;-66
2022/04/11 01:46:30;0.00;0.00;0.62;0.00;0.00;0.62;2.80;2.27;;;22.20;22.10;;;;;;2247866;61;20902;-66
2022/04/11 01:49:25;0.00;0.00;0.62;0.00;0.00;0.62;2.83;1.97;;;22.10;22.10;;;;;;2247711;61;20399;-66
2022/04/11 01:52:09;0.00;0.00;0.62;0.00;0.00;0.62;2.80;1.60;;;22.10;22.10;;;;;;2247437;61;20424;-66
2022/04/11 01:54:56;0.00;0.00;0.62;0.00;0.00;0.62;2.43;2.00;;;22.00;22.10;;;;;;2244744;61;20518;-66
2022/04/11 01:57:41;0.00;0.00;0.62;0.00;0.00;0.62;3.57;1.50;;;21.90;22.00;;;;;;2248080;61;20399;-70
2022/04/11 02:00:26;0.00;0.00;0.62;0.00;0.00;0.62;2.50;1.70;;;21.90;22.00;;;;;;2247772;61;20415;-66
2022/04/11 02:03:11;0.00;0.00;0.62;0.00;0.00;0.62;2.20;1.50;;;21.90;22.10;;;;;;2248189;61;20364;-66
2022/04/11 02:05:56;0.00;0.00;0.62;0.00;0.00;0.62;2.10;1.60;;;21.90;22.10;;;;;;2244596;61;20367;-66
2022/04/11 02:08:41;0.00;0.00;0.62;0.00;0.00;0.62;2.40;1.50;;;21.80;22.10;;;;;;2247365;61;20407;-66
2022/04/11 02:11:30;0.00;0.00;0.62;0.00;0.00;0.62;2.80;1.57;;;21.80;22.10;;;;;;2247766;61;20442;-66
2022/04/11 02:14:16;0.00;0.00;0.62;0.00;0.00;0.62;2.40;1.90;;;21.80;22.20;;;;;;2247494;61;20395;-66
2022/04/11 02:17:01;0.00;0.00;0.62;0.00;0.00;0.62;2.90;1.47;;;21.80;22.20;;;;;;2247209;61;20418;-66
2022/04/11 02:19:45;0.00;0.00;0.62;0.00;0.00;0.62;3.13;1.90;;;21.70;22.10;;;;;;2248009;61;20734;-67
2022/04/11 02:22:46;0.00;0.00;0.62;0.00;0.00;0.62;2.20;1.63;;;21.70;22.10;;;;;;2247558;61;20865;-66
2022/04/11 02:25:34;0.00;0.00;0.62;0.00;0.00;0.62;2.87;1.80;;;21.70;22.10;;;;;;2247488;61;20356;-66
2022/04/11 02:28:21;0.00;0.00;0.62;0.00;0.00;0.62;2.20;1.50;;;21.70;22.10;;;;;;2247167;61;20415;-66
2022/04/11 02:31:07;0.00;0.00;0.62;0.00;0.00;0.62;2.70;1.60;;;21.60;22.10;;;;;;2247441;61;20387;-66
2022/04/11 02:33:52;0.00;0.00;0.62;0.00;0.00;0.62;2.93;1.53;;;21.60;22.10;;;;;;2248280;61;20773;-66
2022/04/11 02:36:36;0.00;0.00;0.62;0.00;0.00;0.62;1.97;1.77;;;21.50;22.00;;;;;;2248081;61;20372;-66
2022/04/11 02:39:22;0.00;0.00;0.62;0.00;0.00;0.62;2.17;1.67;;;21.50;22.50;;;;;;2247744;61;20363;-66
2022/04/11 02:42:07;0.00;0.00;0.62;0.00;0.00;0.62;2.00;1.43;;;21.50;22.00;;;;;;2248836;61;20383;-66
2022/04/11 02:44:55;0.00;0.00;0.62;0.00;0.00;0.62;2.17;1.60;;;21.50;22.00;;;;;;2245749;61;20928;-66
2022/04/11 02:47:41;0.00;0.00;0.62;0.00;0.00;0.62;2.33;1.40;;;21.40;22.00;;;;;;2248179;61;20379;-66
2022/04/11 02:50:26;0.00;0.00;0.62;0.00;0.00;0.62;2.30;1.40;;;21.40;22.00;;;;;;2247776;61;20808;-65
2022/04/11 02:53:23;0.00;0.00;0.62;0.00;0.00;0.62;2.20;1.60;;;21.40;22.00;;;;;;2248374;61;20427;-65
2022/04/11 02:56:08;0.00;0.00;0.62;0.00;0.00;0.62;2.37;1.10;;;21.30;21.90;;;;;;2249034;61;20370;-65
2022/04/11 02:58:53;0.00;0.00;0.62;0.00;0.00;0.62;2.90;1.63;;;21.40;22.10;;;;;;2247462;61;20368;-65
2022/04/11 03:01:39;0.00;0.00;0.62;0.00;0.00;0.62;2.83;1.70;;;21.30;22.00;;;;;;2247931;61;20375;-65
2022/04/11 03:04:26;0.00;0.00;0.62;0.00;0.00;0.62;2.13;1.43;;;21.30;22.00;;;;;;2248468;61;20384;-66
2022/04/11 03:07:27;0.00;0.00;0.62;0.00;0.00;0.62;1.80;1.33;;;21.30;22.00;;;;;;2248604;61;20363;-68
2022/04/11 03:10:12;0.00;0.00;0.62;0.00;0.00;0.62;2.67;1.70;;;21.30;22.00;;;;;;2247779;61;20519;-66
2022/04/11 03:12:57;0.00;0.00;0.62;0.00;0.00;0.62;2.43;1.30;;;21.30;22.00;;;;;;2248103;61;20431;-65
2022/04/11 03:15:42;0.00;0.00;0.62;0.00;0.00;0.62;2.90;1.40;;;21.20;22.00;;;;;;2245401;61;20431;-65
2022/04/11 03:18:28;0.00;0.00;0.62;0.00;0.00;0.62;2.43;1.40;;;21.20;22.00;;;;;;2248558;61;20368;-66
2022/04/11 03:21:13;0.00;0.00;0.62;0.00;0.00;0.62;2.33;1.60;;;21.20;21.90;;;;;;2247881;61;20471;-65
2022/04/11 03:24:00;0.00;0.00;0.62;0.00;0.00;0.62;3.63;1.77;;;21.10;21.70;;;;;;2247676;61;20412;-67
2022/04/11 03:26:44;0.00;0.00;0.62;0.00;0.00;0.62;2.57;1.40;;;21.10;21.70;;;;;;2245528;61;20387;-66
2022/04/11 03:29:35;0.00;0.00;0.62;0.00;0.00;0.62;2.80;1.70;;;21.00;21.60;;;;;;2248058;61;20459;-66
2022/04/11 03:32:20;0.00;0.00;0.62;0.00;0.00;0.62;2.00;1.27;;;21.00;21.60;;;;;;2248015;61;20915;-67
2022/04/11 03:35:09;0.00;0.00;0.62;0.00;0.00;0.62;2.33;1.67;;;20.90;21.50;;;;;;2247894;61;20395;-68
2022/04/11 03:37:56;0.00;0.00;0.62;0.00;0.00;0.62;2.93;1.50;;;20.90;21.50;;;;;;2247856;61;20372;-65
2022/04/11 03:40:43;0.00;0.00;0.62;0.00;0.00;0.62;2.37;1.40;;;20.80;21.40;;;;;;2248173;61;20387;-65
2022/04/11 03:43:30;0.00;0.00;0.62;0.00;0.00;0.62;3.07;1.50;;;20.80;21.50;;;;;;2247960;61;20899;-69
2022/04/11 03:46:15;0.00;0.00;0.62;0.00;0.00;0.62;2.20;1.33;;;20.80;21.60;;;;;;2245081;61;20363;-66
2022/04/11 03:49:00;0.00;0.00;0.62;0.00;0.00;0.62;1.90;1.33;;;20.70;21.50;;;;;;2247716;61;20830;-65
2022/04/11 03:51:45;0.00;0.00;0.62;0.00;0.00;0.62;1.90;1.27;;;20.70;21.50;;;;;;2248003;61;20387;-66
2022/04/11 03:54:30;0.00;0.00;0.62;0.00;0.00;0.62;1.80;1.60;;;20.70;21.50;;;;;;2248084;61;20371;-66
2022/04/11 03:57:16;0.00;0.00;0.62;0.00;0.00;0.62;1.97;1.40;;;20.60;21.90;;;;;;2247521;61;21075;-67
2022/04/11 04:00:00;0.00;0.00;0.62;0.00;0.00;0.62;2.10;1.40;;;20.60;21.40;;;;;;2247805;61;20371;-66
2022/04/11 04:02:47;0.00;0.00;0.62;0.00;0.00;0.62;2.57;1.60;;;20.60;21.40;;;;;;2248300;61;20396;-66
2022/04/11 04:05:39;0.00;0.00;0.62;0.00;0.00;0.62;2.30;1.63;;;20.50;21.30;;;;;;2244914;61;20371;-66
2022/04/11 04:08:25;0.00;0.00;0.62;0.00;0.00;0.62;2.10;1.70;;;20.40;21.20;;;;;;2247609;61;20780;-66
2022/04/11 04:11:22;0.00;0.00;0.62;0.00;0.00;0.62;2.17;1.47;;;20.40;21.20;;;;;;2247689;61;20387;-66
2022/04/11 04:14:19;0.00;0.00;0.62;0.00;0.00;0.62;2.50;1.77;;;20.30;21.20;;;;;;2247896;61;20423;-66
2022/04/11 04:17:08;0.00;0.00;0.62;0.00;0.00;0.62;2.10;1.60;;;20.30;21.20;;;;;;2247911;61;20464;-66
2022/04/11 04:20:02;0.00;0.00;0.62;0.00;0.00;0.62;2.80;1.80;;;20.30;21.30;;;;;;2247224;61;20825;-67
2022/04/11 04:22:48;0.00;0.00;0.62;0.00;0.00;0.62;2.10;1.77;;;20.20;21.30;;;;;;2244908;61;20495;-66
2022/04/11 04:25:36;0.00;0.00;0.62;0.00;0.00;0.62;2.53;1.57;;;20.20;21.30;;;;;;2247969;61;20447;-66
2022/04/11 04:28:21;0.00;0.00;0.62;0.00;0.00;0.62;2.23;1.47;;;20.20;21.40;;;;;;2247756;61;20372;-66
2022/04/11 04:31:06;0.00;0.00;0.62;0.00;0.00;0.62;2.20;1.47;;;20.10;21.30;;;;;;2247949;61;20439;-66
2022/04/11 04:33:54;0.00;0.00;0.62;0.00;0.00;0.62;2.00;1.30;;;20.10;21.40;;;;;;2247958;61;20681;-66
2022/04/11 04:36:40;0.00;0.00;0.62;0.00;0.00;0.62;1.93;1.30;;;20.10;21.40;;;;;;2247909;61;20904;-66
2022/04/11 04:39:25;0.00;0.00;0.62;0.00;0.00;0.62;2.33;1.30;;;20.00;21.30;;;;;;2247629;61;20363;-66
2022/04/11 04:42:12;0.00;0.00;0.62;0.00;0.00;0.62;3.63;1.47;;;20.00;21.40;;;;;;2248022;61;20375;-66
2022/04/11 04:44:57;0.00;0.00;0.62;0.00;0.00;0.62;2.00;1.40;;;20.00;21.40;;;;;;2247788;61;20407;-65
2022/04/11 04:47:42;0.00;0.00;0.62;0.00;0.00;0.62;1.73;1.23;;;20.00;21.60;;;;;;2248005;61;20391;-65
2022/04/11 04:50:27;0.00;0.00;0.62;0.00;0.00;0.62;2.10;1.50;;;19.90;21.40;;;;;;2247765;61;20384;-66
2022/04/11 04:53:12;0.00;0.00;0.62;0.00;0.00;0.62;2.47;1.50;;;20.00;21.50;;;;;;2247425;61;20399;-68
2022/04/11 04:55:57;0.00;0.00;0.62;0.00;0.00;0.62;3.10;1.70;;;19.90;21.40;;;;;;2248046;61;20388;-68
2022/04/11 04:58:46;0.00;0.00;0.62;0.00;0.00;0.62;2.80;1.70;;;19.90;21.40;;;;;;2247264;61;20460;-69
2022/04/11 05:01:31;0.00;0.00;0.62;0.00;0.00;0.62;2.47;1.67;;;19.90;21.40;;;;;;2247649;61;20706;-69
2022/04/11 05:04:16;0.00;0.00;0.62;0.00;0.00;0.62;2.93;1.97;;;19.90;21.40;;;;;;2247696;61;20363;-68
2022/04/11 05:07:01;0.00;0.00;0.62;0.00;0.00;0.62;3.40;2.03;;;19.80;21.40;;;;;;2247299;61;20360;-71
2022/04/11 05:09:46;0.00;0.00;0.62;0.00;0.00;0.62;2.80;1.70;;;19.80;21.40;;;;;;2247876;61;20360;-68
2022/04/11 05:12:38;0.00;0.00;0.62;0.00;0.00;0.62;3.20;1.70;;;19.70;21.30;;;;;;2247641;61;20439;-69
2022/04/11 05:15:24;0.00;0.00;0.62;0.00;0.00;0.62;3.57;2.03;;;19.70;21.30;;;;;;2247934;61;20375;-68
2022/04/11 05:18:15;0.00;0.00;0.62;0.00;0.00;0.62;3.43;2.13;;;19.60;21.60;;;;;;2247156;61;20453;-68
2022/04/11 05:21:00;0.00;0.00;0.62;0.00;0.00;0.62;2.43;1.67;;;19.60;21.30;;;;;;2247923;61;20388;-68
2022/04/11 05:23:49;0.00;0.00;0.62;0.00;0.00;0.62;3.40;2.17;;;19.60;21.30;;;;;;2244993;61;20940;-67
2022/04/11 05:26:34;0.00;0.00;0.62;0.00;0.00;0.62;3.97;2.20;;;19.50;21.40;;;;;;2244663;61;20371;-67
2022/04/11 05:29:19;0.00;0.00;0.62;0.00;0.00;0.62;3.60;1.90;;;19.50;21.40;;;;;;2246968;61;20483;-68
2022/04/11 05:32:07;0.00;0.00;0.62;0.00;0.00;0.62;3.00;2.23;;;19.50;21.30;;;;;;2247697;61;20940;-69
2022/04/11 05:34:52;0.00;0.00;0.62;0.00;0.00;0.62;2.50;1.70;;;19.40;21.30;;;;;;2244668;61;20407;-69
2022/04/11 05:37:37;0.00;0.00;0.62;0.00;0.00;0.62;5.17;2.30;;;19.40;21.30;;;;;;2247280;61;20423;-65
2022/04/11 05:40:22;0.00;0.00;0.62;0.00;0.00;0.62;4.53;2.13;;;19.40;21.40;;;;;;2244513;61;20936;-67
2022/04/11 05:43:08;0.00;0.00;0.62;0.00;0.00;0.62;3.80;2.00;;;19.30;21.30;;;;;;2247633;61;20394;-68
2022/04/11 05:45:53;0.00;0.00;0.62;0.00;0.00;0.62;4.67;2.00;;;19.30;21.40;;;;;;2247450;61;20379;-67
2022/04/11 05:48:40;0.00;0.00;0.62;0.00;0.00;0.62;6.90;2.13;;;19.20;21.40;;;;;;2246851;61;20415;-69
2022/04/11 05:51:26;0.00;0.00;0.62;0.00;0.00;0.62;2.10;1.80;;;19.20;21.50;;;;;;2247103;61;20439;-67
2022/04/11 05:54:11;0.00;0.00;0.62;0.00;0.00;0.62;4.13;2.07;;;19.20;21.50;;;;;;2247812;61;20415;-72
2022/04/11 05:56:57;0.00;0.00;0.62;0.00;0.00;0.62;3.47;2.20;;;19.20;21.60;;;;;;2247366;61;20367;-69
2022/04/11 05:59:42;0.00;0.00;0.62;0.00;0.00;0.62;2.90;1.87;;;19.20;21.60;;;;;;2244067;61;20387;-68
2022/04/11 06:02:27;0.00;0.00;0.62;0.00;0.00;0.62;3.77;1.80;;;19.20;21.70;;;;;;2247241;61;20362;-68
2022/04/11 06:05:14;0.00;0.00;0.62;0.00;0.00;0.62;2.43;1.40;;;19.20;21.70;;;;;;2247782;61;20364;-68
2022/04/11 06:07:59;0.00;0.00;0.62;0.00;0.00;0.62;2.67;1.70;;;19.20;21.70;;;;;;2247176;61;20452;-69
2022/04/11 06:10:46;0.00;0.00;0.62;0.00;0.00;0.62;3.13;1.40;;;19.30;21.70;;;;;;2245108;61;20383;-68
2022/04/11 06:13:36;0.00;0.00;0.62;0.00;0.00;0.62;4.33;1.40;;;19.30;21.70;;;;;;2247749;61;20391;-69
2022/04/11 06:16:20;0.00;0.00;0.62;0.00;0.00;0.62;2.60;1.33;;;19.30;21.70;;;;;;2248847;61;20367;-69
2022/04/11 06:19:05;0.00;0.00;0.62;0.00;0.00;0.62;2.70;1.50;;;19.30;21.80;;;;;;2247824;61;20464;-69
2022/04/11 06:21:52;0.00;0.00;0.62;0.00;0.00;0.62;2.37;1.67;;;19.40;21.80;;;;;;2247754;61;20398;-69
2022/04/11 06:24:37;0.00;0.00;0.62;0.00;0.00;0.62;2.93;1.57;;;19.40;21.80;;;;;;2248368;61;20411;-69
2022/04/11 06:27:21;0.00;0.00;0.62;0.00;0.00;0.62;2.70;1.60;;;19.40;21.80;;;;;;2248362;61;20746;-70
2022/04/11 06:30:07;0.00;0.00;0.62;0.00;0.00;0.62;2.00;1.70;;;19.50;21.90;;;;;;2247838;61;20371;-68
2022/04/11 06:32:54;0.00;0.00;0.62;0.00;0.00;0.62;2.73;1.50;;;19.50;21.90;;;;;;2247881;61;20428;-68
2022/04/11 06:35:39;0.00;0.00;0.62;0.00;0.00;0.62;4.10;1.80;;;19.50;21.90;;;;;;2247975;61;20778;-66
2022/04/11 06:38:25;0.00;0.00;0.62;0.00;0.00;0.62;3.00;1.70;;;19.50;21.90;;;;;;2248385;61;20411;-67
2022/04/11 06:41:10;0.00;0.00;0.62;0.00;0.00;0.62;4.57;2.10;;;19.50;21.90;;;;;;2245241;61;20577;-66
2022/04/11 06:43:55;0.00;0.00;0.62;0.00;0.00;0.62;2.60;1.43;;;19.50;21.90;;;;;;2247864;61;20771;-65
2022/04/11 06:46:57;0.00;0.00;0.62;0.00;0.00;0.62;2.90;1.70;;;19.50;21.90;;;;;;2248013;61;20379;-66
2022/04/11 06:49:44;0.00;0.00;0.62;0.00;0.00;0.62;2.30;1.67;;;19.60;21.90;;;;;;2248459;61;20363;-66
2022/04/11 06:52:29;0.00;0.00;0.62;0.00;0.00;0.62;4.40;2.07;;;19.60;21.90;;;;;;2248573;61;20395;-65
2022/04/11 06:55:14;0.00;0.00;0.62;0.00;0.00;0.62;2.53;1.50;;;19.60;21.90;;;;;;2248592;61;20365;-71
2022/04/11 06:57:59;0.00;0.00;0.62;0.00;0.00;0.62;3.57;1.73;;;19.60;22.00;;;;;;2248487;61;20372;-70
2022/04/11 07:00:44;0.00;0.00;0.62;0.00;0.00;0.62;4.07;2.50;;;19.60;21.90;;;;;;2249196;61;20379;-67
2022/04/11 07:03:31;0.00;0.00;0.62;0.00;0.00;0.62;3.53;2.07;;;19.60;22.00;;;;;;2248535;61;20371;-65
2022/04/11 07:06:15;0.00;0.00;0.62;0.00;0.00;0.62;2.70;2.00;;;19.70;22.10;;;;;;2248184;61;20399;-67
2022/04/11 07:09:00;0.00;0.00;0.62;0.00;0.00;0.62;3.57;2.60;;;19.70;22.10;;;;;;2248070;61;20359;-67
2022/04/11 07:11:47;0.00;0.00;0.62;0.00;0.00;0.62;2.80;2.00;;;19.70;22.20;;;;;;2248868;61;20462;-66
2022/04/11 07:14:31;0.00;0.00;0.62;0.00;0.00;0.62;4.40;2.20;;;19.70;22.10;;;;;;2247709;61;20411;-69
2022/04/11 07:17:16;0.00;0.00;0.62;0.00;0.00;0.62;4.57;1.93;;;19.80;22.20;;;;;;2248069;61;20359;-69
2022/04/11 07:20:01;0.00;0.00;0.62;0.00;0.00;0.62;2.33;2.03;;;19.80;22.20;;;;;;2247653;61;20916;-67
2022/04/11 07:22:46;0.00;0.00;0.62;0.00;0.00;0.62;3.40;2.63;;;19.80;22.20;;;;;;2248895;61;20415;-64
2022/04/11 07:25:31;0.00;0.00;0.62;0.00;0.00;0.62;3.97;2.50;;;19.80;22.20;;;;;;2245406;61;20820;-64
2022/04/11 07:28:17;0.00;0.00;0.62;0.00;0.00;0.62;6.17;2.77;;;19.80;22.30;;;;;;2247259;61;20368;-65
2022/04/11 07:31:01;0.00;0.00;0.62;0.00;0.00;0.62;5.70;2.90;;;19.90;22.30;;;;;;2248667;61;20434;-63
2022/04/11 07:33:47;0.00;0.00;0.62;0.00;0.00;0.62;5.23;3.30;;;19.90;22.30;;;;;;2248550;61;20387;-62
2022/04/11 07:36:33;0.00;0.00;0.62;0.00;0.00;0.62;4.70;3.70;;;19.90;22.30;;;;;;2249109;61;20360;-67
2022/04/11 07:39:19;0.00;0.00;0.62;0.00;0.00;0.62;5.03;3.00;;;19.90;22.30;;;;;;2248537;61;20904;-66
2022/04/11 07:42:04;0.00;0.00;0.62;0.00;0.00;0.62;4.77;3.07;;;20.00;22.40;;;;;;2248735;61;20403;-65
2022/04/11 07:44:50;0.00;0.00;0.62;0.00;0.00;0.62;4.00;3.20;;;20.00;22.40;;;;;;2249265;61;20406;-66
2022/04/11 07:47:35;0.00;0.00;0.62;0.00;0.00;0.62;4.93;3.10;;;20.00;22.40;;;;;;2248084;61;20408;-66
2022/04/11 07:50:19;0.00;0.00;0.62;0.00;0.00;0.62;5.80;2.93;;;20.10;22.40;;;;;;2248160;61;20864;-65
2022/04/11 07:53:04;0.00;0.00;0.62;0.00;0.00;0.62;4.20;2.93;;;20.10;22.50;;;;;;2249022;61;21032;-65
2022/04/11 07:55:48;0.00;0.00;0.62;0.00;0.00;0.62;4.33;3.23;;;20.10;22.40;;;;;;2249782;61;20424;-63
2022/04/11 07:58:33;0.00;0.00;0.62;0.00;0.00;0.62;5.20;3.13;;;20.10;22.40;;;;;;2248242;61;20419;-63
2022/04/11 08:01:19;0.00;0.00;0.62;0.00;0.00;0.62;3.80;3.20;;;20.20;23.00;;;;;;2248621;61;20384;-64
2022/04/11 08:04:03;0.00;0.00;0.62;0.00;0.00;0.62;4.50;3.17;;;20.20;22.40;;;;;;2250101;61;20371;-68
2022/04/11 08:06:48;0.00;0.00;0.62;0.00;0.00;0.62;5.50;3.40;;;20.20;22.50;;;;;;2249902;61;20380;-65
2022/04/11 08:09:33;0.00;0.00;0.62;0.00;0.00;0.62;4.60;2.70;;;20.30;22.50;;;;;;2249181;61;20368;-65
2022/04/11 08:12:18;0.00;0.00;0.62;0.00;0.00;0.62;4.77;3.10;;;20.30;22.50;;;;;;2248363;61;20802;-67
2022/04/11 08:15:03;0.00;0.00;0.62;0.00;0.00;0.62;4.47;3.00;;;20.30;22.60;;;;;;2249003;61;20363;-68
2022/04/11 08:17:49;0.00;0.00;0.62;0.00;0.00;0.62;4.13;3.13;;;20.30;22.50;;;;;;2249290;61;20363;-65
2022/04/11 08:20:34;0.00;0.00;0.62;0.00;0.00;0.62;3.03;2.10;;;20.40;22.60;;;;;;2249049;61;20795;-65
2022/04/11 08:23:19;0.00;0.00;0.62;0.00;0.00;0.62;3.10;2.50;;;20.40;22.60;;;;;;2249094;61;20408;-66
2022/04/11 08:26:04;0.00;0.00;0.62;0.00;0.00;0.62;3.27;2.53;;;20.40;22.70;;;;;;2248543;61;20379;-64
2022/04/11 08:28:48;0.00;0.00;0.62;0.00;0.00;0.62;3.77;2.63;;;20.40;22.60;;;;;;2248692;61;20360;-67
2022/04/11 08:31:33;0.00;0.00;0.62;0.00;0.00;0.62;3.93;2.93;;;20.50;22.80;;;;;;2248539;61;20396;-66
2022/04/11 08:34:19;0.00;0.00;0.62;0.00;0.00;0.62;4.27;2.80;;;20.50;22.70;;;;;;2249240;61;20431;-65
2022/04/11 08:37:04;0.00;0.00;0.62;0.00;0.00;0.62;3.67;2.40;;;20.60;22.80;;;;;;2249743;61;20410;-68
2022/04/11 08:39:49;0.00;0.00;0.62;0.00;0.00;0.62;3.63;2.40;;;20.60;22.80;;;;;;2247630;61;20411;-72
2022/04/11 08:42:33;0.00;0.00;0.62;0.00;0.00;0.62;3.57;2.80;;;20.60;22.80;;;;;;2247751;61;20959;-64
2022/04/11 08:45:21;0.00;0.00;0.62;0.00;0.00;0.62;3.53;2.73;;;20.70;22.90;;;;;;2247930;61;20367;-64
2022/04/11 08:48:07;0.00;0.00;0.62;0.00;0.00;0.62;3.30;2.30;;;20.70;22.90;;;;;;2247903;61;20366;-64
2022/04/11 08:50:53;0.00;0.00;0.62;0.00;0.00;0.62;3.93;2.47;;;20.80;22.90;;;;;;2248385;61;20415;-62
2022/04/11 08:53:38;0.00;0.00;0.62;0.00;0.00;0.62;5.93;2.40;;;20.80;22.90;;;;;;2250058;61;20438;-62
2022/04/11 08:56:23;0.00;0.00;0.62;0.00;0.00;0.62;4.17;2.63;;;20.80;22.90;;;;;;2249685;61;20364;-61
2022/04/11 08:59:07;0.00;0.00;0.62;0.00;0.00;0.62;4.63;2.67;;;20.90;22.90;;;;;;2248572;61;20979;-62
2022/04/11 09:01:52;0.00;0.00;0.62;0.00;0.00;0.62;3.40;2.07;;;20.90;23.10;;;;;;2247710;61;20471;-60
2022/04/11 09:04:50;0.00;0.00;0.62;0.00;0.00;0.62;6.37;3.20;;;20.90;22.90;;;;;;2244545;61;20888;-59
2022/04/11 09:07:48;0.00;0.00;0.62;0.00;0.00;0.62;4.43;2.77;;;20.90;22.90;;;;;;2247775;61;20411;-60
2022/04/11 09:10:37;0.00;0.00;0.62;0.00;0.00;0.62;3.63;2.40;;;21.00;23.00;;;;;;2244975;61;20480;-60
2022/04/11 09:13:22;0.00;0.00;0.62;0.00;0.00;0.62;3.77;2.93;;;21.00;23.00;;;;;;2248222;61;20391;-62
2022/04/11 09:16:06;0.00;0.00;0.62;0.00;0.00;0.62;3.20;2.63;;;21.00;22.90;;;;;;2245015;61;20523;-62
2022/04/11 09:18:53;0.00;0.00;0.62;0.00;0.00;0.62;4.37;3.13;;;21.10;23.00;;;;;;2247459;61;20411;-61
2022/04/11 09:21:44;0.00;0.00;0.62;0.00;0.00;0.62;3.20;2.00;;;21.10;23.00;;;;;;2248581;61;20483;-55
2022/04/11 09:24:31;0.00;0.00;0.62;0.00;0.00;0.62;9.30;2.77;;;21.10;22.90;;;;;;2245384;61;20860;-63
2022/04/11 09:27:23;0.00;0.00;0.62;0.00;0.00;0.62;4.90;2.83;;;21.20;23.00;;;;;;2247760;61;20515;-61
2022/04/11 09:30:24;0.00;0.00;0.62;0.00;0.00;0.62;5.77;2.53;;;21.20;23.00;;;;;;2247818;61;20419;-62
2022/04/11 09:33:10;0.00;0.00;0.62;0.00;0.00;0.62;5.10;2.70;;;21.20;23.00;;;;;;2244478;61;20387;-64
2022/04/11 09:35:54;0.00;0.00;0.62;0.00;0.00;0.62;4.90;2.37;;;21.20;23.00;;;;;;2248521;61;20779;-61
2022/04/11 09:38:39;0.00;0.00;0.62;0.00;0.00;0.62;6.83;2.70;;;21.30;23.00;;;;;;2247554;61;20398;-60
2022/04/11 09:41:28;0.00;0.00;0.62;0.00;0.00;0.62;5.80;2.63;;;21.30;23.00;;;;;;2247535;61;20877;-57
2022/04/11 09:44:22;0.00;0.00;0.62;0.00;0.00;0.62;3.37;2.17;;;21.30;22.90;;;;;;2248626;61;20364;-62
2022/04/11 09:47:07;0.00;0.00;0.62;0.00;0.00;0.62;6.30;2.50;;;21.30;22.90;;;;;;2248689;61;20423;-60
2022/04/11 09:49:52;0.00;0.00;0.62;0.00;0.00;0.62;4.30;2.40;;;21.40;22.90;;;;;;2248456;61;20410;-62
2022/04/11 09:52:37;0.00;0.00;0.62;0.00;0.00;0.62;3.20;2.37;;;21.40;22.90;;;;;;2248287;61;20387;-61
2022/04/11 09:55:23;0.00;0.00;0.62;0.00;0.00;0.62;3.70;2.47;;;21.40;22.90;;;;;;2248713;61;20364;-61
2022/04/11 09:58:09;0.00;0.00;0.62;0.00;0.00;0.62;3.13;2.00;;;21.40;22.80;;;;;;2248596;61;20384;-57
2022/04/11 10:00:55;0.00;0.00;0.62;0.00;0.00;0.62;2.93;2.00;;;21.50;22.90;;;;;;2248612;61;20395;-61
2022/04/11 10:03:40;0.00;0.00;0.62;0.00;0.00;0.62;2.83;1.83;;;21.50;22.90;;;;;;2245225;61;20411;-62
2022/04/11 10:06:26;0.00;0.00;0.62;0.00;0.00;0.62;3.80;2.33;;;21.50;22.90;;;;;;2248682;61;20406;-62
2022/04/11 10:09:12;0.00;0.00;0.62;0.00;0.00;0.62;2.80;2.00;;;21.60;22.90;;;;;;2248613;61;20371;-62
2022/04/11 10:11:57;0.00;0.00;0.62;0.00;0.00;0.62;3.30;2.27;;;21.60;22.90;;;;;;2248550;61;20797;-60
2022/04/11 10:14:46;0.00;0.00;0.62;0.00;0.00;0.62;3.10;2.23;;;21.60;22.90;;;;;;2248644;61;20403;-62
2022/04/11 10:17:31;0.00;0.00;0.62;0.00;0.00;0.62;3.10;2.10;;;21.60;22.90;;;;;;2248481;61;20376;-61
2022/04/11 10:20:25;0.00;0.00;0.62;0.00;0.00;0.62;3.00;1.83;;;21.70;22.90;;;;;;2248789;61;20399;-61
2022/04/11 10:23:24;0.00;0.00;0.62;0.00;0.00;0.62;2.80;2.20;;;21.70;22.90;;;;;;2245321;61;20363;-62
2022/04/11 10:26:15;0.00;0.00;0.62;0.00;0.00;0.62;3.10;1.80;;;21.70;22.90;;;;;;2248034;61;20371;-59
2022/04/11 10:29:00;0.00;0.00;0.62;0.00;0.00;0.62;3.60;1.77;;;21.80;23.00;;;;;;2244862;61;20363;-61
2022/04/11 10:32:03;0.00;0.00;0.62;0.00;0.00;0.62;3.10;1.70;;;21.80;23.00;;;;;;2248584;61;20971;-59
2022/04/11 10:34:54;0.00;0.00;0.62;0.00;0.00;0.62;2.27;1.27;;;21.80;22.90;;;;;;2249034;61;20376;-56
2022/04/11 10:38:07;0.00;0.00;0.62;0.00;0.00;0.62;2.23;1.40;;;21.90;23.00;;;;;;2248403;61;20387;-67
2022/04/11 10:40:52;0.00;0.00;0.62;0.00;0.00;0.62;2.80;1.90;;;21.90;23.00;;;;;;2245109;61;20793;-61
2022/04/11 10:43:37;0.00;0.00;0.62;0.00;0.00;0.62;3.30;2.00;;;21.90;22.90;;;;;;2248201;61;20396;-62
2022/04/11 10:46:21;0.00;0.00;0.62;0.00;0.00;0.62;5.60;1.60;;;22.00;23.00;;;;;;2245552;61;20360;-61
2022/04/11 10:49:07;0.00;0.00;0.62;0.00;0.00;0.62;1.87;1.37;;;22.00;23.00;;;;;;2247960;61;20364;-59
2022/04/11 10:52:29;0.00;0.00;0.62;0.00;0.00;0.62;2.57;1.37;;;22.00;23.00;;;;;;2244755;61;20799;-59
2022/04/11 10:55:17;0.00;0.00;0.62;0.00;0.00;0.62;2.50;1.70;;;22.10;23.10;;;;;;2248189;61;20395;-59
2022/04/11 10:58:03;0.00;0.00;0.62;0.00;0.00;0.62;4.20;2.00;;;22.10;23.10;;;;;;2248319;61;20399;-62